Time,TemperatureF,DewpointF,PressureIn,WindDirection,WindDirectionDegrees,WindSpeedMPH,WindSpeedGustMPH,Humidity,HourlyPrecipIn,Conditions,Clouds,dailyrainin,SoftwareType,DateUTC
2013-08-18 00:02:00,64.9,62.8,30.09,East,85,0.0,0.0,93,0.00,,,0.00,Wunderground v.1.15,2013-08-18 05:02:00,
2013-08-18 00:07:00,64.7,62.6,30.09,East,85,0.0,0.0,93,0.00,,,0.00,Wunderground v.1.15,2013-08-18 05:07:00,
2013-08-18 00:12:00,64.6,62.5,30.09,East,85,0.0,0.0,93,0.00,,,0.00,Wunderground v.1.15,2013-08-18 05:12:00,
2013-08-18 00:17:00,64.4,62.3,30.09,East,85,0.0,0.0,93,0.00,,,0.00,Wunderground v.1.15,2013-08-18 05:17:00,
2013-08-18 00:22:00,64.4,62.6,30.09,East,85,0.0,0.0,94,0.00,,,0.00,Wunderground v.1.15,2013-08-18 05:22:00,
2013-08-18 00:27:00,64.5,62.7,30.09,East,85,0.0,0.0,94,0.00,,,0.00,Wunderground v.1.15,2013-08-18 05:27:00,
2013-08-18 00:32:00,64.5,62.4,30.09,East,84,0.0,0.0,93,0.00,,,0.00,Wunderground v.1.15,2013-08-18 05:32:00,
2013-08-18 00:37:00,64.5,62.4,30.09,East,85,0.0,0.0,93,0.00,,,0.00,Wunderground v.1.15,2013-08-18 05:37:00,
2013-08-18 00:42:00,64.4,62.3,30.09,East,85,0.0,0.0,93,0.00,,,0.00,Wunderground v.1.15,2013-08-18 05:42:00,
2013-08-18 00:47:00,64.5,62.4,30.09,East,85,0.0,0.0,93,0.00,,,0.00,Wunderground v.1.15,2013-08-18 05:47:00,
2013-08-18 00:52:00,64.5,62.4,30.09,East,85,0.0,0.0,93,0.00,,,0.00,Wunderground v.1.15,2013-08-18 05:52:00,
2013-08-18 00:57:00,64.5,62.4,30.08,East,84,0.0,0.0,93,0.00,,,0.00,Wunderground v.1.15,2013-08-18 05:57:00,
2013-08-18 01:03:00,64.7,62.6,30.08,East,85,0.0,0.0,93,0.00,,,0.00,Wunderground v.1.15,2013-08-18 06:03:00,
2013-08-18 01:09:00,64.9,62.8,30.08,East,85,0.0,0.0,93,0.00,,,0.00,Wunderground v.1.15,2013-08-18 06:09:00,
2013-08-18 01:14:00,65.0,62.9,30.08,East,91,0.0,0.0,93,0.00,,,0.00,Wunderground v.1.15,2013-08-18 06:14:00,
2013-08-18 01:19:00,65.1,63.0,30.08,East,82,0.0,1.0,93,0.00,,,0.00,Wunderground v.1.15,2013-08-18 06:19:00,
2013-08-18 01:25:00,65.0,62.9,30.08,East,82,0.0,0.0,93,0.00,,,0.00,Wunderground v.1.15,2013-08-18 06:25:00,
2013-08-18 01:30:00,65.0,62.9,30.08,East,82,0.0,0.0,93,0.00,,,0.00,Wunderground v.1.15,2013-08-18 06:30:00,
2013-08-18 01:35:00,64.9,62.8,30.08,East,82,0.0,0.0,93,0.00,,,0.00,Wunderground v.1.15,2013-08-18 06:35:00,
2013-08-18 01:40:00,64.8,62.7,30.08,East,82,0.0,0.0,93,0.00,,,0.00,Wunderground v.1.15,2013-08-18 06:40:00,
2013-08-18 01:45:00,64.7,62.6,30.08,East,82,0.0,0.0,93,0.00,,,0.00,Wunderground v.1.15,2013-08-18 06:45:00,
2013-08-18 01:50:00,64.5,62.4,30.08,East,82,0.0,0.0,93,0.00,,,0.00,Wunderground v.1.15,2013-08-18 06:50:00,
2013-08-18 01:55:00,64.3,62.2,30.07,East,82,0.0,0.0,93,0.00,,,0.00,Wunderground v.1.15,2013-08-18 06:55:00,
2013-08-18 02:00:00,64.1,61.7,30.07,East,82,0.0,0.0,92,0.00,,,0.00,Wunderground v.1.15,2013-08-18 07:00:00,
2013-08-18 02:06:00,63.9,61.8,30.07,East,82,0.0,0.0,93,0.00,,,0.00,Wunderground v.1.15,2013-08-18 07:06:00,
2013-08-18 02:11:00,63.7,61.6,30.07,East,82,0.0,0.0,93,0.00,,,0.00,Wunderground v.1.15,2013-08-18 07:11:00,
2013-08-18 02:16:00,63.6,61.5,30.07,East,82,0.0,0.0,93,0.00,,,0.00,Wunderground v.1.15,2013-08-18 07:16:00,
2013-08-18 02:21:00,63.4,61.3,30.07,East,82,0.0,0.0,93,0.00,,,0.00,Wunderground v.1.15,2013-08-18 07:21:00,
2013-08-18 02:26:00,63.0,60.9,30.07,East,82,0.0,0.0,93,0.00,,,0.00,Wunderground v.1.15,2013-08-18 07:26:00,
2013-08-18 02:31:00,62.9,60.8,30.08,East,82,0.0,0.0,93,0.00,,,0.00,Wunderground v.1.15,2013-08-18 07:31:00,
2013-08-18 02:36:00,62.9,61.1,30.08,SE,134,0.0,0.0,94,0.00,,,0.00,Wunderground v.1.15,2013-08-18 07:36:00,
2013-08-18 02:41:00,62.9,61.1,30.08,SE,136,0.0,0.0,94,0.00,,,0.00,Wunderground v.1.15,2013-08-18 07:41:00,
2013-08-18 02:47:00,63.1,61.3,30.08,SE,136,0.0,0.0,94,0.00,,,0.00,Wunderground v.1.15,2013-08-18 07:47:00,
2013-08-18 02:52:00,63.2,61.4,30.08,SE,135,0.0,0.0,94,0.00,,,0.00,Wunderground v.1.15,2013-08-18 07:52:00,
2013-08-18 02:57:00,63.1,61.3,30.08,SE,135,0.0,0.0,94,0.00,,,0.00,Wunderground v.1.15,2013-08-18 07:57:00,
2013-08-18 03:02:00,62.9,61.1,30.08,SE,135,0.0,0.0,94,0.00,,,0.00,Wunderground v.1.15,2013-08-18 08:02:00,
2013-08-18 03:07:00,63.0,61.5,30.08,SE,135,0.0,1.0,95,0.00,,,0.00,Wunderground v.1.15,2013-08-18 08:07:00,
2013-08-18 03:12:00,63.0,61.5,30.08,SE,135,0.0,0.0,95,0.00,,,0.00,Wunderground v.1.15,2013-08-18 08:12:00,
2013-08-18 03:17:00,63.1,61.6,30.08,SE,135,0.0,0.0,95,0.00,,,0.00,Wunderground v.1.15,2013-08-18 08:17:00,
2013-08-18 03:22:00,63.2,61.7,30.08,SE,136,0.0,0.0,95,0.00,,,0.00,Wunderground v.1.15,2013-08-18 08:22:00,
2013-08-18 03:27:00,63.3,61.8,30.08,SE,136,0.0,0.0,95,0.00,,,0.00,Wunderground v.1.15,2013-08-18 08:27:00,
2013-08-18 03:33:00,63.5,62.0,30.08,SE,135,0.0,0.0,95,0.00,,,0.00,Wunderground v.1.15,2013-08-18 08:33:00,
2013-08-18 03:38:00,63.6,62.1,30.08,SSW,210,0.0,0.0,95,0.00,,,0.00,Wunderground v.1.15,2013-08-18 08:38:00,
2013-08-18 03:43:00,63.7,62.2,30.08,SSW,208,0.0,0.0,95,0.00,,,0.00,Wunderground v.1.15,2013-08-18 08:43:00,
2013-08-18 03:48:00,63.7,62.2,30.08,SSW,207,0.0,0.0,95,0.00,,,0.00,Wunderground v.1.15,2013-08-18 08:48:00,
2013-08-18 03:53:00,63.7,62.2,30.08,SSW,210,0.0,0.0,95,0.00,,,0.00,Wunderground v.1.15,2013-08-18 08:53:00,
2013-08-18 03:58:00,63.7,62.2,30.08,SSW,208,0.0,0.0,95,0.00,,,0.00,Wunderground v.1.15,2013-08-18 08:58:00,
2013-08-18 04:03:00,63.7,62.2,30.08,SSW,208,0.0,0.0,95,0.00,,,0.00,Wunderground v.1.15,2013-08-18 09:03:00,
2013-08-18 04:08:00,63.8,62.3,30.08,SSW,210,0.0,0.0,95,0.00,,,0.00,Wunderground v.1.15,2013-08-18 09:08:00,
2013-08-18 04:13:00,63.8,62.3,30.08,SSW,208,0.0,0.0,95,0.00,,,0.00,Wunderground v.1.15,2013-08-18 09:13:00,
2013-08-18 04:18:00,63.8,62.3,30.08,SSW,210,0.0,0.0,95,0.00,,,0.00,Wunderground v.1.15,2013-08-18 09:18:00,
2013-08-18 04:23:00,63.8,62.3,30.08,SSW,207,0.0,0.0,95,0.00,,,0.00,Wunderground v.1.15,2013-08-18 09:23:00,
2013-08-18 04:29:00,63.9,62.7,30.08,SSW,208,0.0,0.0,96,0.00,,,0.00,Wunderground v.1.15,2013-08-18 09:29:00,
2013-08-18 04:34:00,63.8,62.6,30.08,SSW,210,0.0,0.0,96,0.00,,,0.00,Wunderground v.1.15,2013-08-18 09:34:00,
2013-08-18 04:39:00,63.8,62.6,30.08,SSW,207,0.0,0.0,96,0.00,,,0.00,Wunderground v.1.15,2013-08-18 09:39:00,
2013-08-18 04:44:00,63.7,62.5,30.08,SSW,208,0.0,0.0,96,0.00,,,0.00,Wunderground v.1.15,2013-08-18 09:44:00,
2013-08-18 04:50:00,63.7,62.5,30.08,SSW,207,0.0,0.0,96,0.00,,,0.00,Wunderground v.1.15,2013-08-18 09:50:00,
2013-08-18 04:55:00,63.7,62.5,30.08,SSW,207,0.0,0.0,96,0.00,,,0.00,Wunderground v.1.15,2013-08-18 09:55:00,
2013-08-18 05:00:00,63.7,62.5,30.08,SSW,210,0.0,0.0,96,0.00,,,0.00,Wunderground v.1.15,2013-08-18 10:00:00,
2013-08-18 05:06:00,63.8,62.6,30.08,SSW,208,0.0,0.0,96,0.00,,,0.00,Wunderground v.1.15,2013-08-18 10:06:00,
2013-08-18 05:11:00,63.8,62.6,30.08,SSW,208,0.0,0.0,96,0.00,,,0.00,Wunderground v.1.15,2013-08-18 10:11:00,
2013-08-18 05:16:00,63.9,62.7,30.08,SSW,205,0.0,0.0,96,0.00,,,0.00,Wunderground v.1.15,2013-08-18 10:16:00,
2013-08-18 05:21:00,63.9,62.7,30.09,East,95,0.0,0.0,96,0.00,,,0.00,Wunderground v.1.15,2013-08-18 10:21:00,
2013-08-18 05:26:00,63.9,62.7,30.09,East,95,0.0,0.0,96,0.00,,,0.00,Wunderground v.1.15,2013-08-18 10:26:00,
2013-08-18 05:31:00,63.9,62.7,30.09,East,96,0.0,0.0,96,0.00,,,0.00,Wunderground v.1.15,2013-08-18 10:31:00,
2013-08-18 05:36:00,63.9,62.7,30.09,East,96,0.0,0.0,96,0.00,,,0.00,Wunderground v.1.15,2013-08-18 10:36:00,
2013-08-18 05:41:00,63.9,62.7,30.09,East,96,0.0,0.0,96,0.00,,,0.00,Wunderground v.1.15,2013-08-18 10:41:00,
2013-08-18 05:46:00,63.9,62.7,30.10,East,96,0.0,0.0,96,0.00,,,0.00,Wunderground v.1.15,2013-08-18 10:46:00,
2013-08-18 05:51:00,63.8,62.6,30.10,East,82,0.0,1.0,96,0.00,,,0.00,Wunderground v.1.15,2013-08-18 10:51:00,
2013-08-18 05:56:00,63.7,62.5,30.10,East,82,0.0,1.0,96,0.00,,,0.00,Wunderground v.1.15,2013-08-18 10:56:00,
2013-08-18 06:01:00,63.7,62.5,30.10,East,82,0.0,0.0,96,0.00,,,0.00,Wunderground v.1.15,2013-08-18 11:01:00,
2013-08-18 06:07:00,63.7,62.5,30.10,NNE,30,0.0,0.0,96,0.00,,,0.00,Wunderground v.1.15,2013-08-18 11:07:00,
2013-08-18 06:12:00,63.7,62.5,30.10,NNE,30,0.0,0.0,96,0.00,,,0.00,Wunderground v.1.15,2013-08-18 11:12:00,
2013-08-18 06:17:00,63.7,62.5,30.10,NNE,30,0.0,0.0,96,0.00,,,0.00,Wunderground v.1.15,2013-08-18 11:17:00,
2013-08-18 06:22:00,63.7,62.5,30.10,NNE,30,0.0,0.0,96,0.00,,,0.00,Wunderground v.1.15,2013-08-18 11:22:00,
2013-08-18 06:27:00,63.7,62.5,30.10,NNE,30,0.0,0.0,96,0.00,,,0.00,Wunderground v.1.15,2013-08-18 11:27:00,
2013-08-18 06:32:00,63.7,62.5,30.11,NNE,30,0.0,0.0,96,0.00,,,0.00,Wunderground v.1.15,2013-08-18 11:32:00,
2013-08-18 06:37:00,63.8,62.6,30.11,NNE,30,0.0,0.0,96,0.00,,,0.00,Wunderground v.1.15,2013-08-18 11:37:00,
2013-08-18 06:42:00,63.7,62.5,30.11,ENE,65,0.0,0.0,96,0.00,,,0.00,Wunderground v.1.15,2013-08-18 11:42:00,
2013-08-18 06:47:00,63.8,62.6,30.11,NNW,333,0.0,1.0,96,0.00,,,0.00,Wunderground v.1.15,2013-08-18 11:47:00,
2013-08-18 06:52:00,63.8,62.3,30.11,North,8,0.0,0.0,95,0.00,,,0.00,Wunderground v.1.15,2013-08-18 11:52:00,
2013-08-18 06:57:00,63.8,62.3,30.11,North,350,0.0,2.0,95,0.00,,,0.00,Wunderground v.1.15,2013-08-18 11:57:00,
2013-08-18 07:02:00,63.9,62.4,30.11,North,11,0.0,1.0,95,0.00,,,0.00,Wunderground v.1.15,2013-08-18 12:02:00,
2013-08-18 07:07:00,64.1,62.6,30.12,NNE,25,0.0,1.0,95,0.00,,,0.00,Wunderground v.1.15,2013-08-18 12:07:00,
2013-08-18 07:12:00,64.3,62.8,30.12,NNE,12,0.0,1.0,95,0.00,,,0.00,Wunderground v.1.15,2013-08-18 12:12:00,
2013-08-18 07:17:00,64.5,63.0,30.12,NE,55,0.0,1.0,95,0.00,,,0.00,Wunderground v.1.15,2013-08-18 12:17:00,
2013-08-18 07:22:00,64.6,63.1,30.12,ENE,70,1.0,1.0,95,0.00,,,0.00,Wunderground v.1.15,2013-08-18 12:22:00,
2013-08-18 07:27:00,64.8,63.3,30.12,ENE,70,1.0,1.0,95,0.00,,,0.00,Wunderground v.1.15,2013-08-18 12:27:00,
2013-08-18 07:32:00,64.8,63.3,30.12,ENE,65,1.0,1.0,95,0.00,,,0.00,Wunderground v.1.15,2013-08-18 12:32:00,
2013-08-18 07:37:00,64.9,63.1,30.12,NE,54,1.0,2.0,94,0.00,,,0.00,Wunderground v.1.15,2013-08-18 12:37:00,
2013-08-18 07:42:00,65.0,63.5,30.13,ENE,59,1.0,1.0,95,0.00,,,0.00,Wunderground v.1.15,2013-08-18 12:42:00,
2013-08-18 07:47:00,65.2,63.7,30.13,ENE,75,0.0,1.0,95,0.00,,,0.00,Wunderground v.1.15,2013-08-18 12:47:00,
2013-08-18 07:53:00,65.5,64.0,30.13,ENE,68,0.0,1.0,95,0.00,,,0.00,Wunderground v.1.15,2013-08-18 12:53:00,
2013-08-18 07:59:00,65.8,64.0,30.13,NE,51,0.0,2.0,94,0.00,,,0.00,Wunderground v.1.15,2013-08-18 12:59:00,
2013-08-18 08:04:00,66.0,64.2,30.13,ESE,104,1.0,2.0,94,0.00,,,0.00,Wunderground v.1.15,2013-08-18 13:04:00,
2013-08-18 08:10:00,66.4,64.3,30.13,ENE,68,1.0,1.0,93,0.00,,,0.00,Wunderground v.1.15,2013-08-18 13:10:00,
2013-08-18 08:15:00,66.7,64.6,30.13,North,360,1.0,3.0,93,0.00,,,0.00,Wunderground v.1.15,2013-08-18 13:15:00,
2013-08-18 08:20:00,67.4,65.0,30.13,ENE,58,1.0,1.0,92,0.00,,,0.00,Wunderground v.1.15,2013-08-18 13:20:00,
2013-08-18 08:25:00,68.3,65.6,30.13,ENE,68,1.0,3.0,91,0.00,,,0.00,Wunderground v.1.15,2013-08-18 13:25:00,
2013-08-18 08:30:00,69.1,65.7,30.13,ENE,70,1.0,2.0,89,0.00,,,0.00,Wunderground v.1.15,2013-08-18 13:30:00,
2013-08-18 08:35:00,69.5,65.8,30.13,East,82,1.0,2.0,88,0.00,,,0.00,Wunderground v.1.15,2013-08-18 13:35:00,
2013-08-18 08:41:00,69.7,66.0,30.13,ENE,58,1.0,2.0,88,0.00,,,0.00,Wunderground v.1.15,2013-08-18 13:41:00,
2013-08-18 08:47:00,70.1,66.4,30.13,ENE,65,1.0,3.0,88,0.00,,,0.00,Wunderground v.1.15,2013-08-18 13:47:00,
2013-08-18 08:52:00,70.4,66.7,30.13,East,95,1.0,1.0,88,0.00,,,0.00,Wunderground v.1.15,2013-08-18 13:52:00,
2013-08-18 08:57:00,70.8,66.7,30.13,ESE,106,0.0,1.0,87,0.00,,,0.00,Wunderground v.1.15,2013-08-18 13:57:00,
2013-08-18 09:02:00,71.5,67.1,30.13,ESE,115,0.0,0.0,86,0.00,,,0.00,Wunderground v.1.15,2013-08-18 14:02:00,
2013-08-18 09:07:00,72.4,67.6,30.14,NE,43,1.0,3.0,85,0.00,,,0.00,Wunderground v.1.15,2013-08-18 14:07:00,
2013-08-18 09:13:00,72.9,68.1,30.13,East,95,1.0,2.0,85,0.00,,,0.00,Wunderground v.1.15,2013-08-18 14:13:00,
2013-08-18 09:18:00,73.1,67.3,30.13,ESE,109,1.0,2.0,82,0.00,,,0.00,Wunderground v.1.15,2013-08-18 14:18:00,
2013-08-18 09:23:00,73.0,67.5,30.14,East,82,1.0,3.0,83,0.00,,,0.00,Wunderground v.1.15,2013-08-18 14:23:00,
2013-08-18 09:28:00,73.0,67.9,30.14,East,79,1.0,3.0,84,0.00,,,0.00,Wunderground v.1.15,2013-08-18 14:28:00,
2013-08-18 09:33:00,72.8,67.3,30.14,SSE,149,1.0,2.0,83,0.00,,,0.00,Wunderground v.1.15,2013-08-18 14:33:00,
2013-08-18 09:38:00,72.8,67.7,30.14,East,83,1.0,2.0,84,0.00,,,0.00,Wunderground v.1.15,2013-08-18 14:38:00,
2013-08-18 09:43:00,73.1,68.3,30.14,East,86,1.0,2.0,85,0.00,,,0.00,Wunderground v.1.15,2013-08-18 14:43:00,
2013-08-18 09:48:00,73.3,67.8,30.14,ESE,110,1.0,2.0,83,0.00,,,0.00,Wunderground v.1.15,2013-08-18 14:48:00,
2013-08-18 09:53:00,73.3,68.2,30.14,East,93,1.0,3.0,84,0.00,,,0.00,Wunderground v.1.15,2013-08-18 14:53:00,
2013-08-18 09:58:00,73.7,68.6,30.14,East,82,1.0,3.0,84,0.00,,,0.00,Wunderground v.1.15,2013-08-18 14:58:00,
2013-08-18 10:04:00,74.0,68.5,30.14,ESE,103,1.0,1.0,83,0.00,,,0.00,Wunderground v.1.15,2013-08-18 15:04:00,
2013-08-18 10:10:00,74.2,68.3,30.15,ESE,122,1.0,1.0,82,0.00,,,0.00,Wunderground v.1.15,2013-08-18 15:10:00,
2013-08-18 10:15:00,74.5,68.6,30.14,SE,127,1.0,3.0,82,0.00,,,0.00,Wunderground v.1.15,2013-08-18 15:15:00,
2013-08-18 10:20:00,75.1,69.2,30.14,NE,43,1.0,3.0,82,0.00,,,0.00,Wunderground v.1.15,2013-08-18 15:20:00,
2013-08-18 10:25:00,75.4,69.2,30.14,ENE,76,1.0,3.0,81,0.00,,,0.00,Wunderground v.1.15,2013-08-18 15:25:00,
2013-08-18 10:31:00,75.7,69.1,30.14,SE,124,1.0,2.0,80,0.00,,,0.00,Wunderground v.1.15,2013-08-18 15:31:00,
2013-08-18 10:36:00,75.3,69.1,30.14,SE,143,1.0,2.0,81,0.00,,,0.00,Wunderground v.1.15,2013-08-18 15:36:00,
2013-08-18 10:41:00,75.9,70.4,30.14,ESE,110,1.0,1.0,83,0.00,,,0.00,Wunderground v.1.15,2013-08-18 15:41:00,
2013-08-18 10:46:00,76.6,69.6,30.14,ESE,111,0.0,2.0,79,0.00,,,0.00,Wunderground v.1.15,2013-08-18 15:46:00,
2013-08-18 10:52:00,77.2,70.2,30.13,North,6,1.0,1.0,79,0.00,,,0.00,Wunderground v.1.15,2013-08-18 15:52:00,
2013-08-18 10:57:00,77.7,70.7,30.13,East,90,2.0,5.0,79,0.00,,,0.00,Wunderground v.1.15,2013-08-18 15:57:00,
2013-08-18 11:03:00,78.3,70.1,30.13,ESE,110,1.0,2.0,76,0.00,,,0.00,Wunderground v.1.15,2013-08-18 16:03:00,
2013-08-18 11:08:00,78.3,70.1,30.13,NE,41,2.0,4.0,76,0.00,,,0.00,Wunderground v.1.15,2013-08-18 16:08:00,
2013-08-18 11:13:00,78.5,69.9,30.13,SE,138,2.0,4.0,75,0.00,,,0.00,Wunderground v.1.15,2013-08-18 16:13:00,
2013-08-18 11:19:00,78.5,70.3,30.13,ENE,65,2.0,4.0,76,0.00,,,0.00,Wunderground v.1.15,2013-08-18 16:19:00,
2013-08-18 11:25:00,78.7,70.1,30.13,NE,37,2.0,3.0,75,0.00,,,0.00,Wunderground v.1.15,2013-08-18 16:25:00,
2013-08-18 11:30:00,79.0,70.4,30.13,SW,232,2.0,2.0,75,0.00,,,0.00,Wunderground v.1.15,2013-08-18 16:30:00,
2013-08-18 11:35:00,79.5,71.3,30.13,SE,139,2.0,3.0,76,0.00,,,0.00,Wunderground v.1.15,2013-08-18 16:35:00,
2013-08-18 11:40:00,79.9,70.9,30.12,West,276,1.0,1.0,74,0.00,,,0.00,Wunderground v.1.15,2013-08-18 16:40:00,
2013-08-18 11:46:00,80.5,71.4,30.12,ENE,68,2.0,3.0,74,0.00,,,0.00,Wunderground v.1.15,2013-08-18 16:46:00,
2013-08-18 11:51:00,80.9,71.4,30.12,ESE,108,2.0,2.0,73,0.00,,,0.00,Wunderground v.1.15,2013-08-18 16:51:00,
2013-08-18 11:56:00,80.9,70.2,30.12,East,101,2.0,5.0,70,0.00,,,0.00,Wunderground v.1.15,2013-08-18 16:56:00,
2013-08-18 12:01:00,80.9,70.6,30.12,ESE,113,3.0,3.0,71,0.00,,,0.00,Wunderground v.1.15,2013-08-18 17:01:00,
2013-08-18 12:07:00,81.0,69.0,30.12,ESE,119,3.0,3.0,67,0.00,,,0.00,Wunderground v.1.15,2013-08-18 17:07:00,
2013-08-18 12:13:00,80.8,68.8,30.12,East,84,3.0,4.0,67,0.00,,,0.00,Wunderground v.1.15,2013-08-18 17:13:00,
2013-08-18 12:18:00,81.1,70.8,30.12,ESE,103,3.0,5.0,71,0.00,,,0.00,Wunderground v.1.15,2013-08-18 17:18:00,
2013-08-18 12:23:00,81.3,68.9,30.12,ENE,67,3.0,5.0,66,0.00,,,0.00,Wunderground v.1.15,2013-08-18 17:23:00,
2013-08-18 12:28:00,81.2,68.8,30.12,ENE,75,4.0,7.0,66,0.00,,,0.00,Wunderground v.1.15,2013-08-18 17:28:00,
2013-08-18 12:33:00,81.2,69.6,30.12,SSE,159,3.0,4.0,68,0.00,,,0.00,Wunderground v.1.15,2013-08-18 17:33:00,
2013-08-18 12:38:00,81.6,69.1,30.11,SE,133,3.0,4.0,66,0.00,,,0.00,Wunderground v.1.15,2013-08-18 17:38:00,
2013-08-18 12:43:00,81.9,68.1,30.11,SSW,211,3.0,3.0,63,0.00,,,0.00,Wunderground v.1.15,2013-08-18 17:43:00,
2013-08-18 12:49:00,82.0,69.1,30.11,East,84,2.0,4.0,65,0.00,,,0.00,Wunderground v.1.15,2013-08-18 17:49:00,
2013-08-18 12:54:00,81.3,68.9,30.11,ESE,110,2.0,4.0,66,0.00,,,0.00,Wunderground v.1.15,2013-08-18 17:54:00,
2013-08-18 12:59:00,81.4,69.8,30.11,East,86,2.0,4.0,68,0.00,,,0.00,Wunderground v.1.15,2013-08-18 17:59:00,
2013-08-18 13:04:00,81.9,69.0,30.11,East,82,3.0,5.0,65,0.00,,,0.00,Wunderground v.1.15,2013-08-18 18:04:00,
2013-08-18 13:09:00,82.4,70.3,30.11,ESE,111,3.0,6.0,67,0.00,,,0.00,Wunderground v.1.15,2013-08-18 18:09:00,
2013-08-18 13:14:00,82.6,69.2,30.11,ESE,111,3.0,4.0,64,0.00,,,0.00,Wunderground v.1.15,2013-08-18 18:14:00,
2013-08-18 13:19:00,82.3,68.0,30.11,SE,131,3.0,7.0,62,0.00,,,0.00,Wunderground v.1.15,2013-08-18 18:19:00,
2013-08-18 13:25:00,82.4,69.0,30.11,SE,128,4.0,6.0,64,0.00,,,0.00,Wunderground v.1.15,2013-08-18 18:25:00,
2013-08-18 13:30:00,82.5,68.6,30.11,SE,134,4.0,4.0,63,0.00,,,0.00,Wunderground v.1.15,2013-08-18 18:30:00,
2013-08-18 13:36:00,82.5,68.6,30.10,ENE,73,4.0,6.0,63,0.00,,,0.00,Wunderground v.1.15,2013-08-18 18:36:00,
2013-08-18 13:41:00,82.7,67.4,30.10,SE,146,3.0,4.0,60,0.00,,,0.00,Wunderground v.1.15,2013-08-18 18:41:00,
2013-08-18 13:46:00,82.9,68.1,30.10,ENE,78,3.0,6.0,61,0.00,,,0.00,Wunderground v.1.15,2013-08-18 18:46:00,
2013-08-18 13:52:00,83.0,69.1,30.10,ENE,75,3.0,4.0,63,0.00,,,0.00,Wunderground v.1.15,2013-08-18 18:52:00,
2013-08-18 13:57:00,83.5,69.1,30.10,ENE,71,2.0,4.0,62,0.00,,,0.00,Wunderground v.1.15,2013-08-18 18:57:00,
2013-08-18 14:02:00,84.0,69.6,30.10,NE,47,2.0,3.0,62,0.00,,,0.00,Wunderground v.1.15,2013-08-18 19:02:00,
2013-08-18 14:07:00,82.6,68.3,30.10,ENE,71,2.0,6.0,62,0.00,,,0.00,Wunderground v.1.15,2013-08-18 19:07:00,
2013-08-18 14:12:00,81.7,68.3,30.09,East,84,3.0,3.0,64,0.00,,,0.00,Wunderground v.1.15,2013-08-18 19:12:00,
2013-08-18 14:18:00,81.4,68.1,30.09,ESE,117,1.0,3.0,64,0.00,,,0.00,Wunderground v.1.15,2013-08-18 19:18:00,
2013-08-18 14:24:00,81.9,68.5,30.09,NE,44,1.0,1.0,64,0.00,,,0.00,Wunderground v.1.15,2013-08-18 19:24:00,
2013-08-18 14:29:00,82.8,68.4,30.09,ENE,68,1.0,3.0,62,0.00,,,0.00,Wunderground v.1.15,2013-08-18 19:29:00,
2013-08-18 14:34:00,83.0,67.7,30.09,ESE,121,3.0,5.0,60,0.00,,,0.00,Wunderground v.1.15,2013-08-18 19:34:00,
2013-08-18 14:39:00,83.2,67.9,30.08,ESE,105,3.0,5.0,60,0.00,,,0.00,Wunderground v.1.15,2013-08-18 19:39:00,
2013-08-18 14:44:00,83.7,68.3,30.08,ENE,65,3.0,5.0,60,0.00,,,0.00,Wunderground v.1.15,2013-08-18 19:44:00,
2013-08-18 14:49:00,83.4,67.1,30.08,ENE,73,3.0,5.0,58,0.00,,,0.00,Wunderground v.1.15,2013-08-18 19:49:00,
2013-08-18 14:54:00,83.8,67.9,30.08,ESE,114,2.0,3.0,59,0.00,,,0.00,Wunderground v.1.15,2013-08-18 19:54:00,
2013-08-18 14:59:00,83.9,68.0,30.08,ESE,108,2.0,5.0,59,0.00,,,0.00,Wunderground v.1.15,2013-08-18 19:59:00,
2013-08-18 15:05:00,84.2,68.3,30.08,ESE,113,2.0,3.0,59,0.00,,,0.00,Wunderground v.1.15,2013-08-18 20:05:00,
2013-08-18 15:10:00,84.6,67.7,30.08,ENE,65,2.0,3.0,57,0.00,,,0.00,Wunderground v.1.15,2013-08-18 20:10:00,
2013-08-18 15:16:00,84.4,68.5,30.08,ESE,115,2.0,4.0,59,0.00,,,0.00,Wunderground v.1.15,2013-08-18 20:16:00,
2013-08-18 15:22:00,84.0,68.1,30.08,East,92,2.0,2.0,59,0.00,,,0.00,Wunderground v.1.15,2013-08-18 20:22:00,
2013-08-18 15:27:00,84.2,67.8,30.08,ENE,74,1.0,2.0,58,0.00,,,0.00,Wunderground v.1.15,2013-08-18 20:27:00,
2013-08-18 15:32:00,84.3,67.4,30.08,SSE,167,1.0,4.0,57,0.00,,,0.00,Wunderground v.1.15,2013-08-18 20:32:00,
2013-08-18 15:38:00,84.4,67.0,30.08,SSE,149,2.0,4.0,56,0.00,,,0.00,Wunderground v.1.15,2013-08-18 20:38:00,
2013-08-18 15:43:00,84.5,68.6,30.08,ESE,117,2.0,6.0,59,0.00,,,0.00,Wunderground v.1.15,2013-08-18 20:43:00,
2013-08-18 15:48:00,84.0,66.6,30.07,East,79,3.0,6.0,56,0.00,,,0.00,Wunderground v.1.15,2013-08-18 20:48:00,
2013-08-18 15:54:00,83.6,67.8,30.07,East,98,3.0,4.0,59,0.00,,,0.00,Wunderground v.1.15,2013-08-18 20:54:00,
2013-08-18 15:59:00,83.9,69.0,30.07,SE,127,2.0,4.0,61,0.00,,,0.00,Wunderground v.1.15,2013-08-18 20:59:00,
2013-08-18 16:05:00,84.6,67.2,30.07,ENE,74,1.0,4.0,56,0.00,,,0.00,Wunderground v.1.15,2013-08-18 21:05:00,
2013-08-18 16:11:00,84.0,65.6,30.07,ESE,115,1.0,1.0,54,0.00,,,0.00,Wunderground v.1.15,2013-08-18 21:11:00,
2013-08-18 16:16:00,84.0,68.1,30.07,SE,136,1.0,4.0,59,0.00,,,0.00,Wunderground v.1.15,2013-08-18 21:16:00,
2013-08-18 16:21:00,84.1,66.7,30.07,ENE,58,1.0,4.0,56,0.00,,,0.00,Wunderground v.1.15,2013-08-18 21:21:00,
2013-08-18 16:27:00,84.0,66.6,30.07,ENE,63,1.0,4.0,56,0.00,,,0.00,Wunderground v.1.15,2013-08-18 21:27:00,
2013-08-18 16:32:00,83.7,68.3,30.06,East,99,2.0,3.0,60,0.00,,,0.00,Wunderground v.1.15,2013-08-18 21:32:00,
2013-08-18 16:37:00,83.7,67.4,30.06,East,97,2.0,3.0,58,0.00,,,0.00,Wunderground v.1.15,2013-08-18 21:37:00,
2013-08-18 16:43:00,83.6,66.8,30.06,ENE,70,2.0,5.0,57,0.00,,,0.00,Wunderground v.1.15,2013-08-18 21:43:00,
2013-08-18 16:48:00,83.3,66.5,30.06,ENE,67,2.0,5.0,57,0.00,,,0.00,Wunderground v.1.15,2013-08-18 21:48:00,
2013-08-18 16:53:00,83.5,67.2,30.06,ESE,123,2.0,4.0,58,0.00,,,0.00,Wunderground v.1.15,2013-08-18 21:53:00,
2013-08-18 16:58:00,83.7,66.3,30.06,ESE,110,2.0,4.0,56,0.00,,,0.00,Wunderground v.1.15,2013-08-18 21:58:00,
2013-08-18 17:03:00,83.8,66.4,30.07,North,4,1.0,1.0,56,0.00,,,0.00,Wunderground v.1.15,2013-08-18 22:03:00,
2013-08-18 17:08:00,84.1,66.7,30.07,ESE,110,1.0,2.0,56,0.00,,,0.00,Wunderground v.1.15,2013-08-18 22:08:00,
2013-08-18 17:14:00,84.5,68.6,30.07,ESE,120,0.0,2.0,59,0.00,,,0.00,Wunderground v.1.15,2013-08-18 22:14:00,
2013-08-18 17:19:00,84.0,67.6,30.07,ENE,77,1.0,2.0,58,0.00,,,0.00,Wunderground v.1.15,2013-08-18 22:19:00,
2013-08-18 17:24:00,83.6,66.2,30.07,East,94,1.0,2.0,56,0.00,,,0.00,Wunderground v.1.15,2013-08-18 22:24:00,
2013-08-18 17:29:00,83.7,67.8,30.07,SE,127,1.0,2.0,59,0.00,,,0.00,Wunderground v.1.15,2013-08-18 22:29:00,
2013-08-18 17:34:00,83.4,65.5,30.06,East,91,1.0,1.0,55,0.00,,,0.00,Wunderground v.1.15,2013-08-18 22:34:00,
2013-08-18 17:39:00,83.3,66.5,30.06,SE,127,1.0,3.0,57,0.00,,,0.00,Wunderground v.1.15,2013-08-18 22:39:00,
2013-08-18 17:45:00,83.3,67.5,30.06,ESE,117,1.0,1.0,59,0.00,,,0.00,Wunderground v.1.15,2013-08-18 22:45:00,
2013-08-18 17:51:00,83.7,67.8,30.06,SE,138,0.0,0.0,59,0.00,,,0.00,Wunderground v.1.15,2013-08-18 22:51:00,
2013-08-18 17:56:00,83.6,66.8,30.06,ESE,119,0.0,0.0,57,0.00,,,0.00,Wunderground v.1.15,2013-08-18 22:56:00,
2013-08-18 18:02:00,83.3,68.9,30.06,East,98,0.0,0.0,62,0.00,,,0.00,Wunderground v.1.15,2013-08-18 23:02:00,
2013-08-18 18:07:00,83.4,69.0,30.06,ESE,105,0.0,0.0,62,0.00,,,0.00,Wunderground v.1.15,2013-08-18 23:07:00,
2013-08-18 18:12:00,83.8,69.9,30.06,SE,141,0.0,0.0,63,0.00,,,0.00,Wunderground v.1.15,2013-08-18 23:12:00,
2013-08-18 18:17:00,84.1,69.2,30.06,SE,141,0.0,0.0,61,0.00,,,0.00,Wunderground v.1.15,2013-08-18 23:17:00,
2013-08-18 18:22:00,84.1,70.1,30.06,SE,140,0.0,0.0,63,0.00,,,0.00,Wunderground v.1.15,2013-08-18 23:22:00,
2013-08-18 18:27:00,84.1,70.6,30.06,SE,140,0.0,0.0,64,0.00,,,0.00,Wunderground v.1.15,2013-08-18 23:27:00,
2013-08-18 18:33:00,83.9,69.5,30.05,SE,140,0.0,0.0,62,0.00,,,0.00,Wunderground v.1.15,2013-08-18 23:33:00,
2013-08-18 18:38:00,83.3,69.8,30.05,SE,139,0.0,0.0,64,0.00,,,0.00,Wunderground v.1.15,2013-08-18 23:38:00,
2013-08-18 18:43:00,82.7,70.2,30.05,SE,139,0.0,0.0,66,0.00,,,0.00,Wunderground v.1.15,2013-08-18 23:43:00,
2013-08-18 18:49:00,82.2,69.7,30.05,SE,140,0.0,0.0,66,0.00,,,0.00,Wunderground v.1.15,2013-08-18 23:49:00,
2013-08-18 18:54:00,81.7,69.2,30.05,SE,139,0.0,0.0,66,0.00,,,0.00,Wunderground v.1.15,2013-08-18 23:54:00,
2013-08-18 18:59:00,81.2,68.8,30.05,SE,139,0.0,0.0,66,0.00,,,0.00,Wunderground v.1.15,2013-08-18 23:59:00,
2013-08-18 19:05:00,80.6,68.2,30.05,SE,139,0.0,0.0,66,0.00,,,0.00,Wunderground v.1.15,2013-08-19 00:05:00,
2013-08-18 19:10:00,79.8,67.9,30.06,SE,139,0.0,0.0,67,0.00,,,0.00,Wunderground v.1.15,2013-08-19 00:10:00,
2013-08-18 19:15:00,79.0,68.0,30.06,SE,140,0.0,0.0,69,0.00,,,0.00,Wunderground v.1.15,2013-08-19 00:15:00,
2013-08-18 19:20:00,78.5,67.5,30.06,SE,140,0.0,0.0,69,0.00,,,0.00,Wunderground v.1.15,2013-08-19 00:20:00,
2013-08-18 19:26:00,77.5,67.4,30.06,SE,140,0.0,0.0,71,0.00,,,0.00,Wunderground v.1.15,2013-08-19 00:26:00,
2013-08-18 19:31:00,76.4,67.5,30.06,SE,139,0.0,0.0,74,0.00,,,0.00,Wunderground v.1.15,2013-08-19 00:31:00,
2013-08-18 19:36:00,75.2,67.9,30.06,SE,139,0.0,0.0,78,0.00,,,0.00,Wunderground v.1.15,2013-08-19 00:36:00,
2013-08-18 19:41:00,74.3,67.7,30.06,SE,141,0.0,0.0,80,0.00,,,0.00,Wunderground v.1.15,2013-08-19 00:41:00,
2013-08-18 19:46:00,73.4,66.9,30.06,SE,141,0.0,0.0,80,0.00,,,0.00,Wunderground v.1.15,2013-08-19 00:46:00,
2013-08-18 19:51:00,72.7,66.5,30.06,SE,141,0.0,0.0,81,0.00,,,0.00,Wunderground v.1.15,2013-08-19 00:51:00,
2013-08-18 19:56:00,72.2,66.7,30.06,SE,141,0.0,0.0,83,0.00,,,0.00,Wunderground v.1.15,2013-08-19 00:56:00,
2013-08-18 20:02:00,71.8,67.0,30.07,SE,141,0.0,0.0,85,0.00,,,0.00,Wunderground v.1.15,2013-08-19 01:02:00,
2013-08-18 20:07:00,71.4,67.3,30.07,SE,141,0.0,0.0,87,0.00,,,0.00,Wunderground v.1.15,2013-08-19 01:07:00,
2013-08-18 20:12:00,70.8,66.7,30.07,SE,141,0.0,0.0,87,0.00,,,0.00,Wunderground v.1.15,2013-08-19 01:12:00,
2013-08-18 20:17:00,70.1,66.0,30.07,SE,141,0.0,0.0,87,0.00,,,0.00,Wunderground v.1.15,2013-08-19 01:17:00,
2013-08-18 20:23:00,69.7,66.0,30.07,SE,141,0.0,0.0,88,0.00,,,0.00,Wunderground v.1.15,2013-08-19 01:23:00,
2013-08-18 20:28:00,69.6,66.2,30.08,SE,141,0.0,0.0,89,0.00,,,0.00,Wunderground v.1.15,2013-08-19 01:28:00,
2013-08-18 20:33:00,69.6,66.9,30.07,SE,141,0.0,0.0,91,0.00,,,0.00,Wunderground v.1.15,2013-08-19 01:33:00,
2013-08-18 20:39:00,69.4,66.7,30.08,SE,141,0.0,0.0,91,0.00,,,0.00,Wunderground v.1.15,2013-08-19 01:39:00,
2013-08-18 20:44:00,69.2,66.8,30.08,SE,141,0.0,0.0,92,0.00,,,0.00,Wunderground v.1.15,2013-08-19 01:44:00,
2013-08-18 20:49:00,69.0,66.6,30.08,SE,141,0.0,0.0,92,0.00,,,0.00,Wunderground v.1.15,2013-08-19 01:49:00,
2013-08-18 20:54:00,68.8,66.4,30.08,SE,141,0.0,0.0,92,0.00,,,0.00,Wunderground v.1.15,2013-08-19 01:54:00,
2013-08-18 20:59:00,68.7,66.6,30.08,SE,141,0.0,0.0,93,0.00,,,0.00,Wunderground v.1.15,2013-08-19 01:59:00,
2013-08-18 21:05:00,68.5,66.4,30.08,SE,141,0.0,0.0,93,0.00,,,0.00,Wunderground v.1.15,2013-08-19 02:05:00,
2013-08-18 21:10:00,68.3,66.2,30.08,SE,141,0.0,0.0,93,0.00,,,0.00,Wunderground v.1.15,2013-08-19 02:10:00,
2013-08-18 21:15:00,68.1,66.0,30.09,SE,141,0.0,0.0,93,0.00,,,0.00,Wunderground v.1.15,2013-08-19 02:15:00,
2013-08-18 21:21:00,67.9,66.1,30.09,SE,141,0.0,0.0,94,0.00,,,0.00,Wunderground v.1.15,2013-08-19 02:21:00,
2013-08-18 21:26:00,67.7,65.9,30.09,SE,141,0.0,0.0,94,0.00,,,0.00,Wunderground v.1.15,2013-08-19 02:26:00,
2013-08-18 21:31:00,67.7,65.9,30.09,SE,141,0.0,0.0,94,0.00,,,0.00,Wunderground v.1.15,2013-08-19 02:31:00,
2013-08-18 21:36:00,67.6,65.8,30.09,SE,141,0.0,0.0,94,0.00,,,0.00,Wunderground v.1.15,2013-08-19 02:36:00,
2013-08-18 21:41:00,67.3,65.5,30.09,SE,141,0.0,0.0,94,0.00,,,0.00,Wunderground v.1.15,2013-08-19 02:41:00,
2013-08-18 21:47:00,67.3,65.5,30.09,SE,141,0.0,0.0,94,0.00,,,0.00,Wunderground v.1.15,2013-08-19 02:47:00,
2013-08-18 21:52:00,67.1,65.3,30.09,SE,141,0.0,0.0,94,0.00,,,0.00,Wunderground v.1.15,2013-08-19 02:52:00,
2013-08-18 21:57:00,67.0,65.5,30.09,SE,141,0.0,0.0,95,0.00,,,0.00,Wunderground v.1.15,2013-08-19 02:57:00,
2013-08-18 22:03:00,66.9,65.4,30.09,SE,141,0.0,0.0,95,0.00,,,0.00,Wunderground v.1.15,2013-08-19 03:03:00,
2013-08-18 22:08:00,66.5,64.7,30.09,SE,141,0.0,0.0,94,0.00,,,0.00,Wunderground v.1.15,2013-08-19 03:08:00,
2013-08-18 22:13:00,66.0,64.2,30.09,SE,141,0.0,0.0,94,0.00,,,0.00,Wunderground v.1.15,2013-08-19 03:13:00,
2013-08-18 22:18:00,65.7,64.2,30.09,SE,141,0.0,0.0,95,0.00,,,0.00,Wunderground v.1.15,2013-08-19 03:18:00,
2013-08-18 22:23:00,65.8,64.3,30.09,SE,141,0.0,0.0,95,0.00,,,0.00,Wunderground v.1.15,2013-08-19 03:23:00,
2013-08-18 22:28:00,66.0,64.5,30.09,SE,141,0.0,0.0,95,0.00,,,0.00,Wunderground v.1.15,2013-08-19 03:28:00,
2013-08-18 22:34:00,66.0,64.5,30.09,SE,141,0.0,0.0,95,0.00,,,0.00,Wunderground v.1.15,2013-08-19 03:34:00,
2013-08-18 22:39:00,65.9,64.4,30.09,SE,141,0.0,0.0,95,0.00,,,0.00,Wunderground v.1.15,2013-08-19 03:39:00,
2013-08-18 22:44:00,65.8,64.6,30.09,SE,141,0.0,0.0,96,0.00,,,0.00,Wunderground v.1.15,2013-08-19 03:44:00,
2013-08-18 22:49:00,65.7,64.5,30.09,SE,141,0.0,0.0,96,0.00,,,0.00,Wunderground v.1.15,2013-08-19 03:49:00,
2013-08-18 22:54:00,65.5,64.3,30.09,SE,141,0.0,0.0,96,0.00,,,0.00,Wunderground v.1.15,2013-08-19 03:54:00,
2013-08-18 23:00:00,65.6,64.4,30.09,SE,141,0.0,0.0,96,0.00,,,0.00,Wunderground v.1.15,2013-08-19 04:00:00,
2013-08-18 23:01:00,65.6,64.4,30.09,SE,141,0.0,0.0,96,0.00,,,0.00,Wunderground v.1.15,2013-08-19 04:01:00,
2013-08-18 23:02:00,65.6,64.4,30.09,SE,141,0.0,0.0,96,0.00,,,0.00,Wunderground v.1.15,2013-08-19 04:02:00,
2013-08-18 23:03:00,65.6,64.4,30.09,SE,141,0.0,0.0,96,0.00,,,0.00,Wunderground v.1.15,2013-08-19 04:03:00,
2013-08-18 23:05:00,65.6,64.4,30.09,SE,141,0.0,0.0,96,0.00,,,0.00,Wunderground v.1.15,2013-08-19 04:05:00,
2013-08-18 23:06:00,65.6,64.4,30.09,SE,141,0.0,0.0,96,0.00,,,0.00,Wunderground v.1.15,2013-08-19 04:06:00,
2013-08-18 23:11:00,65.5,64.3,30.09,SE,141,0.0,0.0,96,0.00,,,0.00,Wunderground v.1.15,2013-08-19 04:11:00,
2013-08-18 23:16:00,65.4,64.2,30.09,SE,141,0.0,0.0,96,0.00,,,0.00,Wunderground v.1.15,2013-08-19 04:16:00,
2013-08-18 23:21:00,65.2,64.0,30.09,SE,141,0.0,0.0,96,0.00,,,0.00,Wunderground v.1.15,2013-08-19 04:21:00,
2013-08-18 23:26:00,65.2,64.0,30.09,SE,141,0.0,0.0,96,0.00,,,0.00,Wunderground v.1.15,2013-08-19 04:26:00,
2013-08-18 23:31:00,65.2,64.0,30.09,SE,141,0.0,0.0,96,0.00,,,0.00,Wunderground v.1.15,2013-08-19 04:31:00,
2013-08-18 23:36:00,65.1,63.9,30.09,SE,141,0.0,0.0,96,0.00,,,0.00,Wunderground v.1.15,2013-08-19 04:36:00,
2013-08-18 23:41:00,64.8,63.6,30.09,SE,141,0.0,0.0,96,0.00,,,0.00,Wunderground v.1.15,2013-08-19 04:41:00,
2013-08-18 23:46:00,64.5,63.3,30.09,SE,141,0.0,0.0,96,0.00,,,0.00,Wunderground v.1.15,2013-08-19 04:46:00,
2013-08-18 23:51:00,64.7,63.5,30.09,SE,141,0.0,0.0,96,0.00,,,0.00,Wunderground v.1.15,2013-08-19 04:51:00,
2013-08-18 23:57:00,64.7,63.5,30.09,SE,141,0.0,0.0,96,0.00,,,0.00,Wunderground v.1.15,2013-08-19 04:57:00,